sensor_id;sensor_type;location;lat;lon;timestamp;P1;durP1;ratioP1;P2;durP2;ratioP2
8092;SDS011;4089;52.420;13.334;2023-07-31T04:40:11;41.40;;;6.87;;
8092;SDS011;4089;52.420;13.334;2023-07-31T04:42:38;41.17;;;7.13;;
8092;SDS011;4089;52.420;13.334;2023-07-31T04:45:04;42.10;;;7.23;;
8092;SDS011;4089;52.420;13.334;2023-07-31T04:47:31;41.23;;;6.80;;
8092;SDS011;4089;52.420;13.334;2023-07-31T04:49:58;41.17;;;6.57;;
8092;SDS011;4089;52.420;13.334;2023-07-31T04:52:25;40.10;;;6.73;;
8092;SDS011;4089;52.420;13.334;2023-07-31T04:54:52;43.33;;;6.93;;
8092;SDS011;4089;52.420;13.334;2023-07-31T04:57:19;40.30;;;5.77;;
8092;SDS011;4089;52.420;13.334;2023-07-31T04:59:45;35.90;;;5.27;;
8092;SDS011;4089;52.420;13.334;2023-07-31T05:02:15;43.53;;;7.13;;
8092;SDS011;4089;52.420;13.334;2023-07-31T05:04:42;43.93;;;6.80;;
8092;SDS011;4089;52.420;13.334;2023-07-31T05:07:09;42.67;;;6.33;;
8092;SDS011;4089;52.420;13.334;2023-07-31T05:09:36;40.27;;;6.30;;
8092;SDS011;4089;52.420;13.334;2023-07-31T05:12:04;44.30;;;6.00;;
8092;SDS011;4089;52.420;13.334;2023-07-31T05:14:31;41.90;;;7.20;;
8092;SDS011;4089;52.420;13.334;2023-07-31T05:16:58;40.60;;;6.00;;
8092;SDS011;4089;52.420;13.334;2023-07-31T05:19:25;40.03;;;5.63;;
8092;SDS011;4089;52.420;13.334;2023-07-31T05:21:52;38.90;;;5.70;;
8092;SDS011;4089;52.420;13.334;2023-07-31T05:24:19;42.70;;;6.13;;
8092;SDS011;4089;52.420;13.334;2023-07-31T05:26:46;36.07;;;5.50;;
8092;SDS011;4089;52.420;13.334;2023-07-31T05:29:12;34.70;;;4.87;;
8092;SDS011;4089;52.420;13.334;2023-07-31T05:31:39;39.47;;;5.00;;
8092;SDS011;4089;52.420;13.334;2023-07-31T05:34:06;35.57;;;4.93;;
8092;SDS011;4089;52.420;13.334;2023-07-31T05:36:33;33.77;;;4.10;;
8092;SDS011;4089;52.420;13.334;2023-07-31T05:38:59;35.67;;;4.47;;
8092;SDS011;4089;52.420;13.334;2023-07-31T05:41:26;35.40;;;3.93;;
8092;SDS011;4089;52.420;13.334;2023-07-31T05:43:53;36.57;;;4.70;;
8092;SDS011;4089;52.420;13.334;2023-07-31T05:46:20;40.50;;;4.97;;
8092;SDS011;4089;52.420;13.334;2023-07-31T05:48:47;39.53;;;4.83;;
8092;SDS011;4089;52.420;13.334;2023-07-31T05:51:14;40.47;;;5.27;;
8092;SDS011;4089;52.420;13.334;2023-07-31T05:53:41;38.40;;;4.90;;
8092;SDS011;4089;52.420;13.334;2023-07-31T05:56:08;38.70;;;4.93;;
8092;SDS011;4089;52.420;13.334;2023-07-31T05:58:34;38.53;;;4.87;;
8092;SDS011;4089;52.420;13.334;2023-07-31T06:01:01;36.13;;;5.07;;
8092;SDS011;4089;52.420;13.334;2023-07-31T06:03:28;36.87;;;4.90;;
8092;SDS011;4089;52.420;13.334;2023-07-31T06:05:55;36.97;;;4.40;;
8092;SDS011;4089;52.420;13.334;2023-07-31T06:08:21;33.63;;;4.67;;
8092;SDS011;4089;52.420;13.334;2023-07-31T06:10:48;37.10;;;4.07;;
8092;SDS011;4089;52.420;13.334;2023-07-31T06:13:15;33.50;;;4.17;;
8092;SDS011;4089;52.420;13.334;2023-07-31T06:15:42;35.23;;;4.13;;
8092;SDS011;4089;52.420;13.334;2023-07-31T06:18:09;35.87;;;3.40;;
8092;SDS011;4089;52.420;13.334;2023-07-31T06:20:36;37.60;;;3.47;;
8092;SDS011;4089;52.420;13.334;2023-07-31T06:23:03;35.57;;;3.60;;
8092;SDS011;4089;52.420;13.334;2023-07-31T06:25:30;32.10;;;3.20;;
8092;SDS011;4089;52.420;13.334;2023-07-31T06:27:57;34.80;;;3.30;;
8092;SDS011;4089;52.420;13.334;2023-07-31T06:30:24;34.77;;;3.23;;
8092;SDS011;4089;52.420;13.334;2023-07-31T06:32:51;33.07;;;3.03;;
8092;SDS011;4089;52.420;13.334;2023-07-31T06:35:17;32.57;;;2.90;;
8092;SDS011;4089;52.420;13.334;2023-07-31T06:37:44;31.20;;;3.07;;
8092;SDS011;4089;52.420;13.334;2023-07-31T06:40:11;37.57;;;3.27;;
8092;SDS011;4089;52.420;13.334;2023-07-31T06:42:38;39.23;;;3.57;;
8092;SDS011;4089;52.420;13.334;2023-07-31T06:45:05;37.83;;;3.90;;
8092;SDS011;4089;52.420;13.334;2023-07-31T06:47:32;33.13;;;2.70;;
8092;SDS011;4089;52.420;13.334;2023-07-31T06:49:59;34.53;;;3.00;;
8092;SDS011;4089;52.420;13.334;2023-07-31T06:52:26;33.13;;;3.10;;
8092;SDS011;4089;52.420;13.334;2023-07-31T06:55:03;32.80;;;3.33;;
8092;SDS011;4089;52.420;13.334;2023-07-31T06:57:44;40.47;;;3.83;;
8092;SDS011;4089;52.420;13.334;2023-07-31T07:00:11;32.87;;;3.40;;
8092;SDS011;4089;52.420;13.334;2023-07-31T07:02:38;36.13;;;3.40;;
8092;SDS011;4089;52.420;13.334;2023-07-31T07:05:06;40.47;;;3.83;;
8092;SDS011;4089;52.420;13.334;2023-07-31T07:07:33;35.50;;;3.80;;
8092;SDS011;4089;52.420;13.334;2023-07-31T07:10:00;40.20;;;4.10;;
8092;SDS011;4089;52.420;13.334;2023-07-31T07:12:29;39.27;;;4.60;;
8092;SDS011;4089;52.420;13.334;2023-07-31T07:14:56;31.87;;;3.00;;
8092;SDS011;4089;52.420;13.334;2023-07-31T07:17:24;36.37;;;4.00;;
8092;SDS011;4089;52.420;13.334;2023-07-31T07:19:51;33.93;;;3.40;;
8092;SDS011;4089;52.420;13.334;2023-07-31T07:22:18;31.90;;;3.60;;
8092;SDS011;4089;52.420;13.334;2023-07-31T07:24:45;36.70;;;5.00;;
8092;SDS011;4089;52.420;13.334;2023-07-31T07:27:12;35.37;;;4.00;;
8092;SDS011;4089;52.420;13.334;2023-07-31T07:29:39;39.33;;;4.03;;
8092;SDS011;4089;52.420;13.334;2023-07-31T07:32:06;32.00;;;3.40;;
8092;SDS011;4089;52.420;13.334;2023-07-31T07:34:33;34.50;;;3.93;;
8092;SDS011;4089;52.420;13.334;2023-07-31T07:36:59;34.50;;;3.57;;
8092;SDS011;4089;52.420;13.334;2023-07-31T07:39:27;31.87;;;3.30;;
8092;SDS011;4089;52.420;13.334;2023-07-31T07:41:53;35.00;;;3.90;;
8092;SDS011;4089;52.420;13.334;2023-07-31T07:44:20;32.93;;;3.50;;
8092;SDS011;4089;52.420;13.334;2023-07-31T07:46:47;35.20;;;3.50;;
8092;SDS011;4089;52.420;13.334;2023-07-31T07:49:14;34.17;;;3.10;;
8092;SDS011;4089;52.420;13.334;2023-07-31T07:51:41;33.27;;;3.93;;
8092;SDS011;4089;52.420;13.334;2023-07-31T07:54:08;32.93;;;3.70;;
8092;SDS011;4089;52.420;13.334;2023-07-31T07:56:35;34.57;;;3.90;;
8092;SDS011;4089;52.420;13.334;2023-07-31T07:59:03;32.97;;;3.57;;
8092;SDS011;4089;52.420;13.334;2023-07-31T08:01:30;32.20;;;3.73;;
8092;SDS011;4089;52.420;13.334;2023-07-31T08:03:57;32.10;;;3.53;;
8092;SDS011;4089;52.420;13.334;2023-07-31T08:06:24;36.73;;;4.23;;
8092;SDS011;4089;52.420;13.334;2023-07-31T08:08:51;36.03;;;4.50;;
8092;SDS011;4089;52.420;13.334;2023-07-31T08:11:18;36.00;;;4.53;;
8092;SDS011;4089;52.420;13.334;2023-07-31T08:13:45;35.70;;;3.87;;
8092;SDS011;4089;52.420;13.334;2023-07-31T08:16:12;39.13;;;4.20;;
8092;SDS011;4089;52.420;13.334;2023-07-31T08:18:39;36.10;;;4.30;;
8092;SDS011;4089;52.420;13.334;2023-07-31T08:21:07;34.67;;;4.23;;
8092;SDS011;4089;52.420;13.334;2023-07-31T08:23:33;35.90;;;4.27;;
8092;SDS011;4089;52.420;13.334;2023-07-31T08:26:00;37.77;;;4.60;;
8092;SDS011;4089;52.420;13.334;2023-07-31T08:28:27;37.13;;;4.03;;
8092;SDS011;4089;52.420;13.334;2023-07-31T08:30:54;34.43;;;4.30;;
8092;SDS011;4089;52.420;13.334;2023-07-31T08:33:21;35.83;;;4.30;;
8092;SDS011;4089;52.420;13.334;2023-07-31T08:35:47;36.60;;;5.13;;
8092;SDS011;4089;52.420;13.334;2023-07-31T08:38:14;33.17;;;3.67;;
8092;SDS011;4089;52.420;13.334;2023-07-31T08:40:41;32.30;;;3.40;;
8092;SDS011;4089;52.420;13.334;2023-07-31T08:43:08;35.60;;;4.33;;
8092;SDS011;4089;52.420;13.334;2023-07-31T08:45:35;35.77;;;4.17;;
8092;SDS011;4089;52.420;13.334;2023-07-31T08:48:03;35.43;;;3.80;;
8092;SDS011;4089;52.420;13.334;2023-07-31T08:50:30;33.60;;;3.53;;
8092;SDS011;4089;52.420;13.334;2023-07-31T08:52:57;31.40;;;3.47;;
8092;SDS011;4089;52.420;13.334;2023-07-31T08:55:24;35.13;;;4.20;;
8092;SDS011;4089;52.420;13.334;2023-07-31T08:57:52;34.57;;;3.47;;
8092;SDS011;4089;52.420;13.334;2023-07-31T09:00:20;32.23;;;2.87;;
8092;SDS011;4089;52.420;13.334;2023-07-31T09:03:02;32.13;;;3.10;;
8092;SDS011;4089;52.420;13.334;2023-07-31T09:05:31;28.80;;;2.10;;
8092;SDS011;4089;52.420;13.334;2023-07-31T09:07:58;31.07;;;2.83;;
8092;SDS011;4089;52.420;13.334;2023-07-31T09:10:26;30.53;;;2.10;;
8092;SDS011;4089;52.420;13.334;2023-07-31T09:12:53;29.40;;;2.13;;
8092;SDS011;4089;52.420;13.334;2023-07-31T09:15:22;30.60;;;1.60;;
8092;SDS011;4089;52.420;13.334;2023-07-31T09:18:03;30.30;;;1.70;;
8092;SDS011;4089;52.420;13.334;2023-07-31T09:20:31;28.97;;;1.73;;
8092;SDS011;4089;52.420;13.334;2023-07-31T09:23:12;29.43;;;2.07;;
8092;SDS011;4089;52.420;13.334;2023-07-31T09:25:43;28.93;;;1.30;;
8092;SDS011;4089;52.420;13.334;2023-07-31T09:28:11;26.57;;;1.07;;
8092;SDS011;4089;52.420;13.334;2023-07-31T09:30:46;28.13;;;1.00;;
8092;SDS011;4089;52.420;13.334;2023-07-31T09:33:14;28.53;;;0.97;;
8092;SDS011;4089;52.420;13.334;2023-07-31T09:35:41;28.80;;;1.20;;
8092;SDS011;4089;52.420;13.334;2023-07-31T09:38:18;28.30;;;1.07;;
8092;SDS011;4089;52.420;13.334;2023-07-31T09:40:45;28.20;;;1.57;;
8092;SDS011;4089;52.420;13.334;2023-07-31T09:43:23;32.33;;;1.37;;
8092;SDS011;4089;52.420;13.334;2023-07-31T09:45:54;27.37;;;1.20;;
8092;SDS011;4089;52.420;13.334;2023-07-31T09:48:23;31.50;;;1.70;;
8092;SDS011;4089;52.420;13.334;2023-07-31T09:50:53;28.50;;;2.30;;
8092;SDS011;4089;52.420;13.334;2023-07-31T09:53:28;29.43;;;1.90;;
8092;SDS011;4089;52.420;13.334;2023-07-31T09:55:57;29.67;;;3.13;;
8092;SDS011;4089;52.420;13.334;2023-07-31T09:58:26;33.07;;;3.20;;
8092;SDS011;4089;52.420;13.334;2023-07-31T10:00:55;33.63;;;3.40;;
8092;SDS011;4089;52.420;13.334;2023-07-31T10:03:25;30.83;;;3.40;;
8092;SDS011;4089;52.420;13.334;2023-07-31T10:05:53;33.13;;;3.40;;
8092;SDS011;4089;52.420;13.334;2023-07-31T10:08:23;33.43;;;3.63;;
8092;SDS011;4089;52.420;13.334;2023-07-31T10:10:58;35.27;;;3.70;;
8092;SDS011;4089;52.420;13.334;2023-07-31T10:13:27;36.13;;;4.30;;
8092;SDS011;4089;52.420;13.334;2023-07-31T10:15:56;32.70;;;4.00;;
8092;SDS011;4089;52.420;13.334;2023-07-31T10:18:25;34.20;;;4.13;;
8092;SDS011;4089;52.420;13.334;2023-07-31T10:20:53;33.50;;;4.03;;
8092;SDS011;4089;52.420;13.334;2023-07-31T10:23:21;36.53;;;4.57;;
8092;SDS011;4089;52.420;13.334;2023-07-31T10:25:51;33.20;;;3.50;;
8092;SDS011;4089;52.420;13.334;2023-07-31T10:28:20;36.87;;;4.70;;
8092;SDS011;4089;52.420;13.334;2023-07-31T10:30:47;34.87;;;5.00;;
8092;SDS011;4089;52.420;13.334;2023-07-31T10:33:17;33.93;;;4.23;;
8092;SDS011;4089;52.420;13.334;2023-07-31T10:35:49;36.20;;;4.37;;
8092;SDS011;4089;52.420;13.334;2023-07-31T10:38:17;34.53;;;4.03;;
8092;SDS011;4089;52.420;13.334;2023-07-31T10:40:44;32.47;;;3.73;;
8092;SDS011;4089;52.420;13.334;2023-07-31T10:43:23;34.07;;;4.27;;
8092;SDS011;4089;52.420;13.334;2023-07-31T10:45:54;33.03;;;3.90;;
8092;SDS011;4089;52.420;13.334;2023-07-31T10:48:21;32.57;;;3.73;;
8092;SDS011;4089;52.420;13.334;2023-07-31T10:50:54;38.73;;;4.50;;
8092;SDS011;4089;52.420;13.334;2023-07-31T10:53:32;29.47;;;3.97;;
8092;SDS011;4089;52.420;13.334;2023-07-31T10:58:33;30.50;;;4.07;;
8092;SDS011;4089;52.420;13.334;2023-07-31T11:01:04;31.50;;;4.03;;
8092;SDS011;4089;52.420;13.334;2023-07-31T11:06:10;28.47;;;3.93;;
8092;SDS011;4089;52.420;13.334;2023-07-31T11:08:46;32.80;;;3.57;;
8092;SDS011;4089;52.420;13.334;2023-07-31T11:11:14;31.23;;;3.87;;
8092;SDS011;4089;52.420;13.334;2023-07-31T11:16:12;28.80;;;3.20;;
8092;SDS011;4089;52.420;13.334;2023-07-31T11:18:40;26.20;;;2.90;;
8092;SDS011;4089;52.420;13.334;2023-07-31T11:21:09;28.67;;;3.77;;
8092;SDS011;4089;52.420;13.334;2023-07-31T11:23:39;29.07;;;3.23;;
8092;SDS011;4089;52.420;13.334;2023-07-31T11:26:06;29.90;;;3.43;;
8092;SDS011;4089;52.420;13.334;2023-07-31T11:28:34;34.20;;;3.70;;
8092;SDS011;4089;52.420;13.334;2023-07-31T11:31:02;27.23;;;3.40;;
8092;SDS011;4089;52.420;13.334;2023-07-31T11:33:29;38.77;;;3.30;;
8092;SDS011;4089;52.420;13.334;2023-07-31T11:35:56;28.97;;;3.23;;
8092;SDS011;4089;52.420;13.334;2023-07-31T11:40:55;26.00;;;2.60;;
8092;SDS011;4089;52.420;13.334;2023-07-31T11:43:26;26.80;;;2.90;;
8092;SDS011;4089;52.420;13.334;2023-07-31T11:45:56;28.00;;;5.20;;
8092;SDS011;4089;52.420;13.334;2023-07-31T11:48:30;32.03;;;3.10;;
8092;SDS011;4089;52.420;13.334;2023-07-31T11:51:00;31.23;;;3.27;;
8092;SDS011;4089;52.420;13.334;2023-07-31T11:56:16;28.80;;;3.40;;
8092;SDS011;4089;52.420;13.334;2023-07-31T11:58:45;26.73;;;3.00;;
8092;SDS011;4089;52.420;13.334;2023-07-31T12:01:14;36.63;;;3.57;;
8092;SDS011;4089;52.420;13.334;2023-07-31T12:03:43;27.47;;;3.17;;
8092;SDS011;4089;52.420;13.334;2023-07-31T12:06:11;29.30;;;2.97;;
8092;SDS011;4089;52.420;13.334;2023-07-31T12:08:38;28.50;;;3.33;;
8092;SDS011;4089;52.420;13.334;2023-07-31T12:11:05;28.37;;;3.20;;
8092;SDS011;4089;52.420;13.334;2023-07-31T12:13:35;27.00;;;3.27;;
8092;SDS011;4089;52.420;13.334;2023-07-31T12:16:03;26.80;;;2.70;;
8092;SDS011;4089;52.420;13.334;2023-07-31T12:18:34;28.80;;;3.17;;
8092;SDS011;4089;52.420;13.334;2023-07-31T12:21:03;29.37;;;3.00;;
8092;SDS011;4089;52.420;13.334;2023-07-31T12:23:32;27.97;;;3.57;;
8092;SDS011;4089;52.420;13.334;2023-07-31T12:28:37;28.03;;;2.83;;
8092;SDS011;4089;52.420;13.334;2023-07-31T12:31:10;28.73;;;3.40;;
8092;SDS011;4089;52.420;13.334;2023-07-31T12:33:41;25.90;;;2.90;;
8092;SDS011;4089;52.420;13.334;2023-07-31T12:36:18;27.67;;;2.80;;
8092;SDS011;4089;52.420;13.334;2023-07-31T12:38:47;26.47;;;2.30;;
8092;SDS011;4089;52.420;13.334;2023-07-31T12:41:15;28.93;;;3.00;;
8092;SDS011;4089;52.420;13.334;2023-07-31T12:43:43;28.43;;;2.70;;
8092;SDS011;4089;52.420;13.334;2023-07-31T12:46:11;27.60;;;2.50;;
8092;SDS011;4089;52.420;13.334;2023-07-31T12:48:39;27.73;;;2.57;;
8092;SDS011;4089;52.420;13.334;2023-07-31T12:51:06;25.30;;;2.00;;
8092;SDS011;4089;52.420;13.334;2023-07-31T12:53:34;27.17;;;1.90;;
8092;SDS011;4089;52.420;13.334;2023-07-31T12:56:01;25.60;;;2.10;;
8092;SDS011;4089;52.420;13.334;2023-07-31T12:58:28;25.00;;;1.87;;
8092;SDS011;4089;52.420;13.334;2023-07-31T13:00:55;31.40;;;2.30;;
8092;SDS011;4089;52.420;13.334;2023-07-31T13:03:22;27.17;;;2.23;;
8092;SDS011;4089;52.420;13.334;2023-07-31T13:05:49;27.80;;;2.20;;
8092;SDS011;4089;52.420;13.334;2023-07-31T13:08:16;26.73;;;2.47;;
8092;SDS011;4089;52.420;13.334;2023-07-31T13:10:44;29.63;;;2.30;;
8092;SDS011;4089;52.420;13.334;2023-07-31T13:13:11;26.60;;;2.60;;
8092;SDS011;4089;52.420;13.334;2023-07-31T13:15:38;28.07;;;2.50;;
8092;SDS011;4089;52.420;13.334;2023-07-31T13:18:08;27.40;;;3.27;;
8092;SDS011;4089;52.420;13.334;2023-07-31T13:20:37;26.20;;;2.27;;
8092;SDS011;4089;52.420;13.334;2023-07-31T13:23:04;28.53;;;3.40;;
8092;SDS011;4089;52.420;13.334;2023-07-31T13:25:31;27.87;;;3.10;;
8092;SDS011;4089;52.420;13.334;2023-07-31T13:28:01;28.57;;;3.00;;
8092;SDS011;4089;52.420;13.334;2023-07-31T13:30:29;27.03;;;3.03;;
8092;SDS011;4089;52.420;13.334;2023-07-31T13:32:59;28.03;;;2.90;;
8092;SDS011;4089;52.420;13.334;2023-07-31T13:35:26;28.10;;;2.87;;
8092;SDS011;4089;52.420;13.334;2023-07-31T13:38:00;27.27;;;3.23;;
8092;SDS011;4089;52.420;13.334;2023-07-31T13:40:27;30.30;;;3.10;;
8092;SDS011;4089;52.420;13.334;2023-07-31T13:42:54;29.57;;;3.40;;
8092;SDS011;4089;52.420;13.334;2023-07-31T13:45:21;27.90;;;3.40;;
8092;SDS011;4089;52.420;13.334;2023-07-31T13:47:50;28.90;;;3.30;;
8092;SDS011;4089;52.420;13.334;2023-07-31T13:50:18;26.43;;;2.83;;
8092;SDS011;4089;52.420;13.334;2023-07-31T13:52:47;29.80;;;3.03;;
8092;SDS011;4089;52.420;13.334;2023-07-31T13:55:14;30.60;;;3.43;;
8092;SDS011;4089;52.420;13.334;2023-07-31T13:57:41;27.27;;;3.27;;
8092;SDS011;4089;52.420;13.334;2023-07-31T14:00:09;30.03;;;3.97;;
8092;SDS011;4089;52.420;13.334;2023-07-31T14:02:40;32.17;;;3.33;;
8092;SDS011;4089;52.420;13.334;2023-07-31T14:05:06;27.30;;;2.93;;
8092;SDS011;4089;52.420;13.334;2023-07-31T14:07:37;28.97;;;3.33;;
8092;SDS011;4089;52.420;13.334;2023-07-31T14:10:04;27.30;;;3.30;;
8092;SDS011;4089;52.420;13.334;2023-07-31T14:12:31;28.20;;;3.17;;
8092;SDS011;4089;52.420;13.334;2023-07-31T14:15:09;28.20;;;3.00;;
8092;SDS011;4089;52.420;13.334;2023-07-31T14:17:36;27.73;;;2.90;;
8092;SDS011;4089;52.420;13.334;2023-07-31T14:20:03;27.90;;;3.37;;
8092;SDS011;4089;52.420;13.334;2023-07-31T14:22:31;31.87;;;4.20;;
8092;SDS011;4089;52.420;13.334;2023-07-31T14:25:00;27.80;;;3.37;;
8092;SDS011;4089;52.420;13.334;2023-07-31T14:27:27;28.40;;;3.53;;
8092;SDS011;4089;52.420;13.334;2023-07-31T14:29:54;27.00;;;3.00;;
8092;SDS011;4089;52.420;13.334;2023-07-31T14:32:22;29.40;;;3.67;;
8092;SDS011;4089;52.420;13.334;2023-07-31T14:34:52;29.50;;;3.10;;
8092;SDS011;4089;52.420;13.334;2023-07-31T14:37:19;27.60;;;3.37;;
8092;SDS011;4089;52.420;13.334;2023-07-31T14:39:46;30.20;;;2.80;;
8092;SDS011;4089;52.420;13.334;2023-07-31T14:42:12;29.23;;;3.33;;
8092;SDS011;4089;52.420;13.334;2023-07-31T14:44:39;28.43;;;3.00;;
8092;SDS011;4089;52.420;13.334;2023-07-31T14:47:06;28.50;;;3.70;;
8092;SDS011;4089;52.420;13.334;2023-07-31T14:49:33;28.93;;;3.20;;
8092;SDS011;4089;52.420;13.334;2023-07-31T14:52:00;28.13;;;3.43;;
8092;SDS011;4089;52.420;13.334;2023-07-31T14:54:27;25.90;;;3.30;;
8092;SDS011;4089;52.420;13.334;2023-07-31T14:56:53;27.10;;;3.50;;
8092;SDS011;4089;52.420;13.334;2023-07-31T14:59:20;28.93;;;3.43;;
8092;SDS011;4089;52.420;13.334;2023-07-31T15:01:47;27.40;;;3.70;;
8092;SDS011;4089;52.420;13.334;2023-07-31T15:04:14;29.03;;;3.57;;
8092;SDS011;4089;52.420;13.334;2023-07-31T15:06:40;30.63;;;3.13;;
8092;SDS011;4089;52.420;13.334;2023-07-31T15:09:08;26.60;;;2.80;;
8092;SDS011;4089;52.420;13.334;2023-07-31T15:11:35;26.53;;;3.00;;
8092;SDS011;4089;52.420;13.334;2023-07-31T15:14:02;26.70;;;2.80;;
8092;SDS011;4089;52.420;13.334;2023-07-31T15:16:28;29.57;;;2.83;;
8092;SDS011;4089;52.420;13.334;2023-07-31T15:18:57;27.43;;;2.93;;
8092;SDS011;4089;52.420;13.334;2023-07-31T15:21:24;30.07;;;3.47;;
8092;SDS011;4089;52.420;13.334;2023-07-31T15:23:51;27.57;;;3.40;;
8092;SDS011;4089;52.420;13.334;2023-07-31T15:26:18;28.20;;;3.27;;
8092;SDS011;4089;52.420;13.334;2023-07-31T15:28:49;34.63;;;3.90;;
8092;SDS011;4089;52.420;13.334;2023-07-31T15:31:21;29.03;;;2.90;;
8092;SDS011;4089;52.420;13.334;2023-07-31T15:33:51;28.17;;;3.87;;
8092;SDS011;4089;52.420;13.334;2023-07-31T15:36:18;28.27;;;3.53;;
8092;SDS011;4089;52.420;13.334;2023-07-31T15:38:45;30.03;;;3.67;;
8092;SDS011;4089;52.420;13.334;2023-07-31T15:41:12;29.17;;;4.20;;
8092;SDS011;4089;52.420;13.334;2023-07-31T15:43:39;28.40;;;3.67;;
8092;SDS011;4089;52.420;13.334;2023-07-31T15:46:05;31.70;;;3.60;;
8092;SDS011;4089;52.420;13.334;2023-07-31T15:48:32;29.80;;;3.57;;
8092;SDS011;4089;52.420;13.334;2023-07-31T15:50:59;30.77;;;3.80;;
8092;SDS011;4089;52.420;13.334;2023-07-31T15:53:27;28.40;;;3.97;;
8092;SDS011;4089;52.420;13.334;2023-07-31T15:55:54;28.03;;;3.60;;
8092;SDS011;4089;52.420;13.334;2023-07-31T15:58:20;28.17;;;3.10;;
8092;SDS011;4089;52.420;13.334;2023-07-31T16:00:47;27.20;;;3.37;;
8092;SDS011;4089;52.420;13.334;2023-07-31T16:03:14;26.20;;;3.10;;
8092;SDS011;4089;52.420;13.334;2023-07-31T16:05:41;29.00;;;3.20;;
8092;SDS011;4089;52.420;13.334;2023-07-31T16:08:08;27.60;;;3.47;;
8092;SDS011;4089;52.420;13.334;2023-07-31T16:10:35;27.83;;;3.70;;
8092;SDS011;4089;52.420;13.334;2023-07-31T16:13:02;28.03;;;3.83;;
8092;SDS011;4089;52.420;13.334;2023-07-31T16:15:29;28.90;;;3.40;;
8092;SDS011;4089;52.420;13.334;2023-07-31T16:17:56;31.20;;;4.00;;
8092;SDS011;4089;52.420;13.334;2023-07-31T16:20:23;30.30;;;3.20;;
8092;SDS011;4089;52.420;13.334;2023-07-31T16:22:50;27.50;;;3.20;;
8092;SDS011;4089;52.420;13.334;2023-07-31T16:25:17;30.33;;;3.37;;
8092;SDS011;4089;52.420;13.334;2023-07-31T16:27:44;30.13;;;4.03;;
8092;SDS011;4089;52.420;13.334;2023-07-31T16:30:11;29.00;;;2.97;;
8092;SDS011;4089;52.420;13.334;2023-07-31T16:32:38;26.53;;;2.90;;
8092;SDS011;4089;52.420;13.334;2023-07-31T16:35:05;29.20;;;3.10;;
8092;SDS011;4089;52.420;13.334;2023-07-31T16:37:32;27.37;;;2.77;;
8092;SDS011;4089;52.420;13.334;2023-07-31T16:39:59;32.10;;;3.60;;
8092;SDS011;4089;52.420;13.334;2023-07-31T16:42:26;29.23;;;3.30;;
8092;SDS011;4089;52.420;13.334;2023-07-31T16:44:53;28.53;;;2.97;;
8092;SDS011;4089;52.420;13.334;2023-07-31T16:47:19;29.83;;;2.57;;
8092;SDS011;4089;52.420;13.334;2023-07-31T16:49:46;28.93;;;2.93;;
8092;SDS011;4089;52.420;13.334;2023-07-31T16:52:13;28.83;;;2.80;;
8092;SDS011;4089;52.420;13.334;2023-07-31T16:54:40;26.00;;;1.93;;
8092;SDS011;4089;52.420;13.334;2023-07-31T16:57:06;26.77;;;3.00;;
8092;SDS011;4089;52.420;13.334;2023-07-31T16:59:33;25.80;;;2.60;;
8092;SDS011;4089;52.420;13.334;2023-07-31T17:02:00;26.07;;;2.70;;
8092;SDS011;4089;52.420;13.334;2023-07-31T17:04:29;27.90;;;2.43;;
8092;SDS011;4089;52.420;13.334;2023-07-31T17:06:57;26.03;;;2.30;;
8092;SDS011;4089;52.420;13.334;2023-07-31T17:09:24;26.77;;;2.60;;
8092;SDS011;4089;52.420;13.334;2023-07-31T17:11:53;29.43;;;2.50;;
8092;SDS011;4089;52.420;13.334;2023-07-31T17:14:21;27.27;;;2.70;;
8092;SDS011;4089;52.420;13.334;2023-07-31T17:16:48;26.73;;;2.40;;
8092;SDS011;4089;52.420;13.334;2023-07-31T17:19:14;26.60;;;2.47;;
8092;SDS011;4089;52.420;13.334;2023-07-31T17:21:41;31.17;;;2.30;;
8092;SDS011;4089;52.420;13.334;2023-07-31T17:24:08;26.80;;;2.13;;
8092;SDS011;4089;52.420;13.334;2023-07-31T17:26:35;26.97;;;2.03;;
8092;SDS011;4089;52.420;13.334;2023-07-31T17:29:02;27.20;;;2.43;;
8092;SDS011;4089;52.420;13.334;2023-07-31T17:31:29;24.90;;;2.10;;
8092;SDS011;4089;52.420;13.334;2023-07-31T17:33:56;27.60;;;1.80;;
8092;SDS011;4089;52.420;13.334;2023-07-31T17:36:23;27.80;;;2.50;;
8092;SDS011;4089;52.420;13.334;2023-07-31T17:38:50;27.57;;;2.47;;
8092;SDS011;4089;52.420;13.334;2023-07-31T17:41:17;24.53;;;1.70;;
8092;SDS011;4089;52.420;13.334;2023-07-31T17:43:44;25.67;;;2.20;;
8092;SDS011;4089;52.420;13.334;2023-07-31T17:46:11;26.43;;;2.10;;
8092;SDS011;4089;52.420;13.334;2023-07-31T17:48:40;28.03;;;2.57;;
8092;SDS011;4089;52.420;13.334;2023-07-31T17:51:08;26.80;;;1.93;;
8092;SDS011;4089;52.420;13.334;2023-07-31T17:53:35;26.97;;;2.00;;
8092;SDS011;4089;52.420;13.334;2023-07-31T17:56:02;26.73;;;2.47;;
8092;SDS011;4089;52.420;13.334;2023-07-31T17:58:29;24.87;;;1.93;;
8092;SDS011;4089;52.420;13.334;2023-07-31T18:00:55;26.50;;;2.10;;
8092;SDS011;4089;52.420;13.334;2023-07-31T18:03:22;25.67;;;2.07;;
8092;SDS011;4089;52.420;13.334;2023-07-31T18:05:52;24.70;;;1.73;;
8092;SDS011;4089;52.420;13.334;2023-07-31T18:08:19;25.60;;;1.50;;
8092;SDS011;4089;52.420;13.334;2023-07-31T18:10:46;28.47;;;1.93;;
8092;SDS011;4089;52.420;13.334;2023-07-31T18:13:13;25.83;;;2.20;;
8092;SDS011;4089;52.420;13.334;2023-07-31T18:15:44;26.40;;;2.30;;
8092;SDS011;4089;52.420;13.334;2023-07-31T18:18:12;27.80;;;2.73;;
8092;SDS011;4089;52.420;13.334;2023-07-31T18:20:39;27.47;;;2.90;;
8092;SDS011;4089;52.420;13.334;2023-07-31T18:23:06;27.07;;;2.70;;
8092;SDS011;4089;52.420;13.334;2023-07-31T18:25:33;28.20;;;2.70;;
8092;SDS011;4089;52.420;13.334;2023-07-31T18:28:00;28.03;;;2.73;;
8092;SDS011;4089;52.420;13.334;2023-07-31T18:30:26;27.43;;;2.63;;
8092;SDS011;4089;52.420;13.334;2023-07-31T18:32:53;26.00;;;2.27;;
8092;SDS011;4089;52.420;13.334;2023-07-31T18:35:20;26.77;;;2.50;;
8092;SDS011;4089;52.420;13.334;2023-07-31T18:37:47;28.87;;;2.50;;
8092;SDS011;4089;52.420;13.334;2023-07-31T18:40:14;26.80;;;2.47;;
8092;SDS011;4089;52.420;13.334;2023-07-31T18:42:41;28.40;;;3.00;;
8092;SDS011;4089;52.420;13.334;2023-07-31T18:45:08;28.50;;;2.40;;
8092;SDS011;4089;52.420;13.334;2023-07-31T18:47:35;26.57;;;2.60;;
8092;SDS011;4089;52.420;13.334;2023-07-31T18:50:02;28.10;;;3.00;;
8092;SDS011;4089;52.420;13.334;2023-07-31T18:52:31;27.83;;;2.83;;
8092;SDS011;4089;52.420;13.334;2023-07-31T18:54:58;29.80;;;3.07;;
8092;SDS011;4089;52.420;13.334;2023-07-31T18:57:25;26.80;;;2.90;;
8092;SDS011;4089;52.420;13.334;2023-07-31T18:59:53;28.57;;;2.97;;
8092;SDS011;4089;52.420;13.334;2023-07-31T19:02:19;28.37;;;2.77;;
8092;SDS011;4089;52.420;13.334;2023-07-31T19:04:46;29.47;;;2.87;;
8092;SDS011;4089;52.420;13.334;2023-07-31T19:07:13;29.87;;;2.90;;
8092;SDS011;4089;52.420;13.334;2023-07-31T19:09:39;29.30;;;3.20;;
8092;SDS011;4089;52.420;13.334;2023-07-31T19:12:06;33.97;;;3.03;;
8092;SDS011;4089;52.420;13.334;2023-07-31T19:14:34;30.40;;;3.27;;
8092;SDS011;4089;52.420;13.334;2023-07-31T19:17:01;30.77;;;3.50;;
8092;SDS011;4089;52.420;13.334;2023-07-31T19:19:28;28.00;;;2.63;;
8092;SDS011;4089;52.420;13.334;2023-07-31T19:21:55;31.83;;;3.10;;
8092;SDS011;4089;52.420;13.334;2023-07-31T19:24:22;28.93;;;2.73;;
8092;SDS011;4089;52.420;13.334;2023-07-31T19:26:57;32.13;;;3.30;;
8092;SDS011;4089;52.420;13.334;2023-07-31T19:29:23;28.20;;;2.87;;
8092;SDS011;4089;52.420;13.334;2023-07-31T19:31:51;32.93;;;2.90;;
8092;SDS011;4089;52.420;13.334;2023-07-31T19:34:17;30.00;;;3.80;;
8092;SDS011;4089;52.420;13.334;2023-07-31T19:36:44;28.53;;;2.90;;
8092;SDS011;4089;52.420;13.334;2023-07-31T19:39:14;27.80;;;3.00;;
8092;SDS011;4089;52.420;13.334;2023-07-31T19:41:41;28.50;;;3.23;;
8092;SDS011;4089;52.420;13.334;2023-07-31T19:44:08;30.20;;;3.30;;
8092;SDS011;4089;52.420;13.334;2023-07-31T19:46:36;29.40;;;3.40;;